Time;durP1;ratioP1;P1;durP2;ratioP2;P2;SDS_P1;SDS_P2;PMS_P1;PMS_P2;Temp;Humidity;BMP_temperature;BMP_pressure;BME280_temperature;BME280_humidity;BME280_pressure;Samples;Min_cycle;Max_cycle;Signal;HPM_P1;HPM_P2
2022/09/29 00:00:16;;;;;;;;;;;20.60;87.80;;;;;;5115413;28;20426;-50
2022/09/29 00:02:41;;;;;;;;;;;20.60;87.80;;;;;;5116192;28;19919;-51
2022/09/29 00:05:07;;;;;;;;;;;20.60;88.00;;;;;;5116080;28;19920;-53
2022/09/29 00:07:32;;;;;;;;;;;20.50;87.90;;;;;;5113444;28;20274;-52
2022/09/29 00:09:58;;;;;;;;;;;20.50;88.00;;;;;;5095402;28;19908;-48
2022/09/29 00:12:23;;;;;;;;;;;20.50;88.10;;;;;;5095703;28;19914;-50
2022/09/29 00:14:49;;;;;;;;;;;20.50;88.00;;;;;;5095566;28;20028;-51
2022/09/29 00:17:15;;;;;;;;;;;20.50;88.10;;;;;;5095891;28;19908;-53
2022/09/29 00:19:40;;;;;;;;;;;20.40;88.10;;;;;;5095223;28;19912;-52
2022/09/29 00:22:06;;;;;;;;;;;20.40;88.20;;;;;;5077283;28;19924;-51
2022/09/29 00:24:31;;;;;;;;;;;20.40;88.20;;;;;;5095438;28;19908;-49
2022/09/29 00:26:57;;;;;;;;;;;20.40;88.30;;;;;;5095025;28;19915;-48
2022/09/29 00:29:22;;;;;;;;;;;20.40;88.30;;;;;;5095270;28;19908;-50
2022/09/29 00:31:47;;;;;;;;;;;20.40;88.30;;;;;;5095176;28;19908;-50
2022/09/29 00:34:13;;;;;;;;;;;20.40;88.30;;;;;;5094941;28;19943;-50
2022/09/29 00:36:40;;;;;;;;;;;20.40;88.20;;;;;;5095253;28;19912;-51
2022/09/29 00:39:05;;;;;;;;;;;20.40;88.30;;;;;;5095439;28;19912;-50
2022/09/29 00:41:32;;;;;;;;;;;20.40;88.30;;;;;;5094561;28;19914;-50
2022/09/29 00:43:59;;;;;;;;;;;20.40;88.40;;;;;;5094496;28;19921;-49
2022/09/29 00:46:41;;;;;;;;;;;20.40;88.40;;;;;;5095251;28;20362;-52
2022/09/29 00:49:12;;;;;;;;;;;20.40;88.30;;;;;;5095032;28;19908;-53
2022/09/29 00:51:38;;;;;;;;;;;20.30;88.30;;;;;;5076785;28;20359;-52
2022/09/29 00:54:05;;;;;;;;;;;20.30;88.20;;;;;;5094826;28;20445;-49
2022/09/29 00:56:31;;;;;;;;;;;20.30;88.20;;;;;;5094814;28;19908;-50
2022/09/29 00:59:00;;;;;;;;;;;20.40;88.40;;;;;;5076970;28;20269;-49
2022/09/29 01:01:26;;;;;;;;;;;20.30;88.30;;;;;;5094611;28;20401;-53
2022/09/29 01:03:53;;;;;;;;;;;20.30;88.40;;;;;;5094437;28;20393;-48
2022/09/29 01:06:22;;;;;;;;;;;20.30;88.40;;;;;;5094728;28;19915;-50
2022/09/29 01:08:51;;;;;;;;;;;20.30;88.50;;;;;;5107314;28;20010;-51
2022/09/29 01:11:18;;;;;;;;;;;20.30;88.50;;;;;;5106732;28;19912;-54
2022/09/29 01:13:45;;;;;;;;;;;20.30;88.50;;;;;;5094119;28;19908;-49
2022/09/29 01:16:10;;;;;;;;;;;20.30;88.40;;;;;;5094686;28;20358;-52
2022/09/29 01:18:36;;;;;;;;;;;20.30;88.40;;;;;;5093837;28;19915;-53
2022/09/29 01:21:08;;;;;;;;;;;20.30;88.30;;;;;;5094132;28;19908;-49
2022/09/29 01:23:46;;;;;;;;;;;20.30;88.40;;;;;;5093978;28;20278;-49
2022/09/29 01:26:20;;;;;;;;;;;20.30;88.50;;;;;;5094027;28;20267;-50
2022/09/29 01:28:58;;;;;;;;;;;20.20;88.30;;;;;;5093870;28;19919;-55
2022/09/29 01:31:23;;;;;;;;;;;20.20;88.50;;;;;;5093998;28;19962;-49
2022/09/29 01:34:08;;;;;;;;;;;20.20;88.50;;;;;;5094197;28;20252;-50
2022/09/29 01:36:52;;;;;;;;;;;20.20;88.60;;;;;;5089092;28;19935;-52
2022/09/29 01:39:17;;;;;;;;;;;20.20;88.60;;;;;;5084922;28;19908;-51
2022/09/29 01:41:48;;;;;;;;;;;20.10;88.50;;;;;;5092433;28;19999;-48
2022/09/29 01:44:18;;;;;;;;;;;20.10;88.60;;;;;;5092751;28;19962;-50
2022/09/29 01:46:47;;;;;;;;;;;20.10;88.60;;;;;;5090039;28;20393;-49
2022/09/29 01:49:13;;;;;;;;;;;20.10;89.30;;;;;;5092323;28;20387;-48
2022/09/29 01:51:52;;;;;;;;;;;20.10;88.70;;;;;;5092271;28;19923;-53
2022/09/29 01:54:19;;;;;;;;;;;20.10;88.80;;;;;;5092353;28;19915;-52
2022/09/29 01:57:03;;;;;;;;;;;20.00;88.70;;;;;;5092787;28;19912;-51
2022/09/29 01:59:40;;;;;;;;;;;20.00;88.80;;;;;;5074352;28;19913;-53
2022/09/29 02:02:10;;;;;;;;;;;20.00;88.90;;;;;;5092298;28;20279;-50
2022/09/29 02:04:39;;;;;;;;;;;19.90;88.90;;;;;;5092531;28;19920;-51
2022/09/29 02:07:07;;;;;;;;;;;19.90;89.00;;;;;;5088580;28;20365;-49
2022/09/29 02:09:39;;;;;;;;;;;19.90;89.10;;;;;;5089433;28;19965;-52
2022/09/29 02:12:06;;;;;;;;;;;19.90;89.10;;;;;;5074303;28;19930;-51
2022/09/29 02:14:37;;;;;;;;;;;19.90;89.10;;;;;;5094998;28;19912;-49
2022/09/29 02:17:05;;;;;;;;;;;19.90;89.20;;;;;;5092554;28;19915;-54
2022/09/29 02:19:32;;;;;;;;;;;19.90;89.20;;;;;;5092308;28;20367;-50
2022/09/29 02:22:00;;;;;;;;;;;19.80;89.10;;;;;;5092236;28;21370;-51
2022/09/29 02:24:25;;;;;;;;;;;19.80;89.20;;;;;;5095346;28;20016;-52
2022/09/29 02:26:51;;;;;;;;;;;19.80;89.20;;;;;;5095699;28;20264;-51
2022/09/29 02:29:17;;;;;;;;;;;19.80;89.30;;;;;;5095629;28;19946;-51
2022/09/29 02:31:43;;;;;;;;;;;19.80;89.30;;;;;;5095107;28;19915;-49
2022/09/29 02:34:10;;;;;;;;;;;19.80;89.30;;;;;;5095750;28;19908;-50
2022/09/29 02:36:41;;;;;;;;;;;19.80;89.30;;;;;;5096249;28;20003;-49
2022/09/29 02:39:13;;;;;;;;;;;19.70;89.30;;;;;;5097490;28;19908;-50
2022/09/29 02:41:45;;;;;;;;;;;19.80;89.30;;;;;;5097478;28;20247;-49
2022/09/29 02:44:15;;;;;;;;;;;19.70;89.30;;;;;;5097381;28;19977;-52
2022/09/29 02:46:47;;;;;;;;;;;19.70;89.40;;;;;;5096954;28;20381;-53
2022/09/29 02:49:18;;;;;;;;;;;19.70;89.50;;;;;;5097206;28;20291;-49
2022/09/29 02:51:46;;;;;;;;;;;19.70;89.60;;;;;;5097177;28;19929;-49
2022/09/29 02:54:12;;;;;;;;;;;19.70;89.50;;;;;;5096863;28;19909;-51
2022/09/29 02:56:44;;;;;;;;;;;19.70;89.60;;;;;;5096920;28;19916;-51
2022/09/29 02:59:15;;;;;;;;;;;19.70;89.50;;;;;;5096939;28;19953;-51
2022/09/29 03:01:51;;;;;;;;;;;19.60;89.50;;;;;;5097067;28;19916;-52
2022/09/29 03:04:18;;;;;;;;;;;19.60;89.60;;;;;;5096607;28;20367;-51
2022/09/29 03:06:43;;;;;;;;;;;19.60;89.60;;;;;;5096584;28;19938;-50
2022/09/29 03:09:09;;;;;;;;;;;19.60;89.70;;;;;;5112566;28;20265;-53
2022/09/29 03:11:34;;;;;;;;;;;19.60;89.60;;;;;;5117244;28;19912;-52
2022/09/29 03:14:00;;;;;;;;;;;19.60;89.70;;;;;;5117124;28;19911;-49
2022/09/29 03:16:25;;;;;;;;;;;19.50;89.70;;;;;;5098775;28;19912;-48
2022/09/29 03:18:51;;;;;;;;;;;19.50;89.70;;;;;;5117022;28;19960;-49
2022/09/29 03:21:16;;;;;;;;;;;19.50;89.70;;;;;;5116816;28;19915;-51
2022/09/29 03:23:42;;;;;;;;;;;19.50;89.70;;;;;;5116944;28;19923;-49
2022/09/29 03:26:07;;;;;;;;;;;19.50;89.60;;;;;;5117331;28;19908;-50
2022/09/29 03:28:33;;;;;;;;;;;19.50;89.70;;;;;;5116657;28;19969;-51
2022/09/29 03:31:05;;;;;;;;;;;19.50;89.80;;;;;;5116862;28;20361;-50
2022/09/29 03:33:31;;;;;;;;;;;19.50;89.90;;;;;;5115199;28;20282;-50
2022/09/29 03:35:57;;;;;;;;;;;19.50;89.80;;;;;;5116376;28;19912;-52
2022/09/29 03:38:22;;;;;;;;;;;19.40;89.80;;;;;;5116782;28;20355;-50
2022/09/29 03:40:48;;;;;;;;;;;19.50;89.80;;;;;;5116339;28;19907;-48
2022/09/29 03:43:13;;;;;;;;;;;19.40;89.80;;;;;;5116319;28;19969;-52
2022/09/29 03:45:46;;;;;;;;;;;19.40;89.80;;;;;;5116189;28;19912;-48
2022/09/29 03:48:12;;;;;;;;;;;19.40;89.80;;;;;;5116161;28;19907;-52
2022/09/29 03:50:37;;;;;;;;;;;19.40;89.90;;;;;;5116180;28;20357;-52
2022/09/29 03:53:02;;;;;;;;;;;19.40;89.90;;;;;;5116437;28;19931;-51
2022/09/29 03:55:28;;;;;;;;;;;19.40;90.00;;;;;;5115974;28;19914;-50
2022/09/29 03:57:54;;;;;;;;;;;19.40;90.00;;;;;;5116331;28;19908;-50
2022/09/29 04:00:19;;;;;;;;;;;19.40;89.90;;;;;;5115988;28;19951;-50
2022/09/29 04:02:44;;;;;;;;;;;19.40;89.90;;;;;;5115771;28;19923;-53
2022/09/29 04:05:10;;;;;;;;;;;19.40;89.90;;;;;;5116009;28;19919;-52
2022/09/29 04:07:35;;;;;;;;;;;19.40;90.00;;;;;;5113031;28;19919;-48
2022/09/29 04:10:01;;;;;;;;;;;19.30;89.90;;;;;;5095704;28;19922;-51
2022/09/29 04:12:26;;;;;;;;;;;19.30;89.90;;;;;;5077536;28;19959;-51
2022/09/29 04:14:52;;;;;;;;;;;19.30;89.90;;;;;;5095132;28;19962;-50
2022/09/29 04:17:17;;;;;;;;;;;19.30;90.00;;;;;;5095211;28;19908;-51
2022/09/29 04:19:43;;;;;;;;;;;19.30;90.00;;;;;;5095053;28;19908;-48
2022/09/29 04:22:08;;;;;;;;;;;19.30;90.00;;;;;;5095028;28;20423;-51
2022/09/29 04:24:34;;;;;;;;;;;19.30;90.00;;;;;;5095419;28;19912;-52
2022/09/29 04:26:59;;;;;;;;;;;19.30;90.00;;;;;;5094955;28;19915;-52
2022/09/29 04:29:24;;;;;;;;;;;19.30;90.00;;;;;;5077073;28;19908;-49
2022/09/29 04:31:50;;;;;;;;;;;19.30;90.00;;;;;;5095071;28;19908;-53
2022/09/29 04:34:15;;;;;;;;;;;19.20;90.00;;;;;;5094734;28;19912;-49
2022/09/29 04:36:41;;;;;;;;;;;19.30;90.00;;;;;;5094978;28;20371;-52
2022/09/29 04:39:06;;;;;;;;;;;19.20;90.00;;;;;;5094697;28;19990;-52
2022/09/29 04:41:34;;;;;;;;;;;19.20;90.00;;;;;;5095257;28;19915;-49
2022/09/29 04:44:01;;;;;;;;;;;19.20;90.00;;;;;;5094718;28;19967;-49
2022/09/29 04:46:26;;;;;;;;;;;19.20;90.00;;;;;;5094500;28;19915;-49
2022/09/29 04:48:52;;;;;;;;;;;19.20;90.00;;;;;;5094835;28;19908;-49
2022/09/29 04:51:17;;;;;;;;;;;19.20;90.10;;;;;;5095013;28;19908;-52
2022/09/29 04:53:43;;;;;;;;;;;19.20;90.00;;;;;;5095014;28;19914;-49
2022/09/29 04:56:08;;;;;;;;;;;19.20;90.00;;;;;;5094515;28;20350;-49
2022/09/29 04:58:34;;;;;;;;;;;19.10;90.00;;;;;;5094671;28;19908;-48
2022/09/29 05:01:04;;;;;;;;;;;19.10;90.10;;;;;;5094062;28;19908;-53
2022/09/29 05:03:29;;;;;;;;;;;19.10;90.10;;;;;;5094423;28;19916;-49
2022/09/29 05:05:54;;;;;;;;;;;19.10;90.10;;;;;;5094110;28;20466;-52
2022/09/29 05:08:20;;;;;;;;;;;19.10;90.10;;;;;;5103530;28;19998;-50
2022/09/29 05:10:46;;;;;;;;;;;19.10;90.10;;;;;;5114694;28;19919;-49
2022/09/29 05:13:12;;;;;;;;;;;19.10;90.10;;;;;;5114672;28;19915;-49
2022/09/29 05:15:37;;;;;;;;;;;19.10;90.10;;;;;;5096353;28;19908;-53
2022/09/29 05:18:03;;;;;;;;;;;19.10;90.20;;;;;;5114248;28;19914;-53
2022/09/29 05:20:28;;;;;;;;;;;19.10;90.10;;;;;;5114633;28;19912;-51
2022/09/29 05:22:56;;;;;;;;;;;19.00;90.00;;;;;;5096327;28;19923;-49
2022/09/29 05:25:21;;;;;;;;;;;19.00;90.00;;;;;;5114821;28;19914;-50
2022/09/29 05:27:47;;;;;;;;;;;19.00;90.10;;;;;;5114026;28;19908;-52
2022/09/29 05:30:12;;;;;;;;;;;18.90;89.70;;;;;;5114283;28;19915;-47
2022/09/29 05:32:38;;;;;;;;;;;18.90;89.70;;;;;;5114422;28;19955;-50
2022/09/29 05:35:03;;;;;;;;;;;19.00;90.00;;;;;;5114084;28;19908;-48
2022/09/29 05:37:29;;;;;;;;;;;19.00;90.10;;;;;;5113851;28;19908;-50
2022/09/29 05:39:54;;;;;;;;;;;19.00;89.90;;;;;;5114216;28;19915;-49
2022/09/29 05:42:20;;;;;;;;;;;19.00;89.80;;;;;;5114057;28;20007;-53
2022/09/29 05:44:45;;;;;;;;;;;18.90;89.70;;;;;;5095870;28;19919;-52
2022/09/29 05:47:11;;;;;;;;;;;18.90;90.00;;;;;;5114127;28;20358;-51
2022/09/29 05:49:36;;;;;;;;;;;18.90;89.90;;;;;;5095522;28;19909;-50
2022/09/29 05:52:02;;;;;;;;;;;18.90;89.60;;;;;;5114486;28;19908;-49
2022/09/29 05:54:27;;;;;;;;;;;18.90;89.80;;;;;;5114068;28;20400;-47
2022/09/29 05:56:53;;;;;;;;;;;18.90;89.50;;;;;;5114793;28;19908;-50
2022/09/29 05:59:18;;;;;;;;;;;18.90;90.10;;;;;;5118264;28;19911;-49
2022/09/29 06:01:44;;;;;;;;;;;18.90;89.60;;;;;;5118325;28;19908;-50
2022/09/29 06:04:09;;;;;;;;;;;18.90;89.40;;;;;;5093834;28;19924;-48
2022/09/29 06:06:39;;;;;;;;;;;18.90;89.40;;;;;;5090114;28;19912;-53
2022/09/29 06:09:05;;;;;;;;;;;18.90;89.80;;;;;;5113160;28;19908;-52
2022/09/29 06:11:30;;;;;;;;;;;18.90;89.60;;;;;;5097452;28;19991;-50
2022/09/29 06:13:57;;;;;;;;;;;18.80;89.70;;;;;;5101582;28;19923;-49
2022/09/29 06:16:24;;;;;;;;;;;18.90;90.10;;;;;;5098629;28;19962;-50
2022/09/29 06:18:49;;;;;;;;;;;18.80;89.70;;;;;;5099001;28;19947;-53
2022/09/29 06:21:24;;;;;;;;;;;18.80;89.90;;;;;;5096480;28;19944;-51
2022/09/29 06:23:51;;;;;;;;;;;18.90;89.80;;;;;;5096235;28;19966;-51
2022/09/29 06:26:18;;;;;;;;;;;18.90;89.70;;;;;;5090475;28;19916;-50
2022/09/29 06:28:43;;;;;;;;;;;18.90;90.00;;;;;;5095923;28;19908;-51
2022/09/29 06:31:11;;;;;;;;;;;18.90;89.80;;;;;;5098834;28;19919;-52
2022/09/29 06:33:37;;;;;;;;;;;18.90;90.00;;;;;;5112791;28;19911;-47
2022/09/29 06:38:48;;;;;;;;;;;18.90;89.90;;;;;;5114228;28;19957;-53
2022/09/29 06:41:13;;;;;;;;;;;19.00;90.00;;;;;;5105405;28;19912;-50
2022/09/29 06:43:39;;;;;;;;;;;18.90;89.90;;;;;;5100688;28;20078;-47
2022/09/29 06:46:04;;;;;;;;;;;18.90;89.80;;;;;;5098456;28;19946;-47
2022/09/29 06:48:30;;;;;;;;;;;18.90;90.10;;;;;;5117473;28;19908;-47
2022/09/29 06:50:55;;;;;;;;;;;18.90;90.00;;;;;;5089885;28;20647;-48
2022/09/29 06:53:21;;;;;;;;;;;18.90;90.00;;;;;;5113612;28;20059;-49
2022/09/29 06:55:55;;;;;;;;;;;18.90;90.00;;;;;;5102125;28;19929;-51
2022/09/29 06:58:21;;;;;;;;;;;18.80;90.00;;;;;;5108175;28;19912;-49
2022/09/29 07:00:46;;;;;;;;;;;18.80;89.80;;;;;;5076765;28;19918;-48
2022/09/29 07:03:12;;;;;;;;;;;18.80;89.80;;;;;;5106795;28;19915;-48
2022/09/29 07:05:37;;;;;;;;;;;18.90;90.00;;;;;;5099733;28;19920;-49
2022/09/29 07:08:03;;;;;;;;;;;18.80;90.10;;;;;;5108933;28;19957;-50
2022/09/29 07:10:28;;;;;;;;;;;18.90;90.10;;;;;;5086071;28;19912;-53
2022/09/29 07:12:54;;;;;;;;;;;18.90;90.00;;;;;;5113651;28;19959;-52
2022/09/29 07:15:19;;;;;;;;;;;19.00;89.80;;;;;;5116893;28;19908;-51
2022/09/29 07:17:45;;;;;;;;;;;19.10;89.60;;;;;;5110527;28;20397;-49
2022/09/29 07:20:10;;;;;;;;;;;19.10;89.70;;;;;;5116880;28;19908;-49
2022/09/29 07:22:36;;;;;;;;;;;19.30;89.80;;;;;;5109870;28;19965;-50
2022/09/29 07:25:01;;;;;;;;;;;19.40;89.60;;;;;;5116427;28;19991;-54
2022/09/29 07:27:27;;;;;;;;;;;19.50;89.50;;;;;;5113832;28;20367;-52
2022/09/29 07:29:52;;;;;;;;;;;19.70;89.10;;;;;;5116702;28;19943;-54
2022/09/29 07:32:18;;;;;;;;;;;19.80;88.70;;;;;;5113970;28;19908;-52
2022/09/29 07:34:44;;;;;;;;;;;20.00;88.20;;;;;;5113022;28;19919;-50
2022/09/29 07:37:10;;;;;;;;;;;20.20;87.80;;;;;;5108731;28;20045;-52
2022/09/29 07:39:35;;;;;;;;;;;20.30;87.40;;;;;;5107998;28;20382;-53
2022/09/29 07:42:02;;;;;;;;;;;20.40;87.10;;;;;;5107522;28;19965;-55
2022/09/29 07:44:29;;;;;;;;;;;20.50;86.80;;;;;;5116638;28;19907;-53
2022/09/29 07:46:54;;;;;;;;;;;20.50;86.60;;;;;;5113937;28;19912;-49
2022/09/29 07:49:19;;;;;;;;;;;20.60;86.50;;;;;;5116044;28;19953;-57
2022/09/29 07:51:45;;;;;;;;;;;20.60;86.50;;;;;;5113551;28;19916;-55
2022/09/29 07:54:10;;;;;;;;;;;20.60;86.50;;;;;;5116514;28;19907;-56
2022/09/29 07:56:36;;;;;;;;;;;20.50;86.60;;;;;;5110751;28;20386;-57
2022/09/29 07:59:03;;;;;;;;;;;20.50;86.70;;;;;;5110287;28;19912;-58
2022/09/29 08:01:28;;;;;;;;;;;20.50;86.90;;;;;;5110606;28;19919;-57
2022/09/29 08:03:54;;;;;;;;;;;20.40;87.00;;;;;;5105396;28;19920;-58
2022/09/29 08:06:21;;;;;;;;;;;20.40;87.30;;;;;;5115997;28;19908;-56
2022/09/29 08:08:46;;;;;;;;;;;20.30;87.40;;;;;;5109143;28;19918;-56
2022/09/29 08:11:13;;;;;;;;;;;20.30;87.60;;;;;;5115528;28;19908;-57
2022/09/29 08:13:39;;;;;;;;;;;20.30;87.70;;;;;;5099032;28;20282;-53
2022/09/29 08:16:06;;;;;;;;;;;20.30;87.90;;;;;;5110532;28;19918;-52
2022/09/29 08:18:33;;;;;;;;;;;20.30;87.90;;;;;;5112994;28;19912;-53
2022/09/29 08:20:59;;;;;;;;;;;20.30;88.00;;;;;;5111089;28;20364;-55
2022/09/29 08:23:24;;;;;;;;;;;20.20;88.00;;;;;;5105495;28;19916;-52
2022/09/29 08:25:57;;;;;;;;;;;20.20;88.10;;;;;;5107491;28;19930;-51
2022/09/29 08:28:23;;;;;;;;;;;20.30;88.10;;;;;;5115483;28;19907;-55
2022/09/29 08:30:48;;;;;;;;;;;20.30;88.00;;;;;;5096167;28;19918;-53
2022/09/29 08:33:14;;;;;;;;;;;20.40;87.90;;;;;;5110949;28;19918;-54
2022/09/29 08:35:40;;;;;;;;;;;20.50;87.60;;;;;;5111621;28;19955;-60
2022/09/29 08:38:05;;;;;;;;;;;20.60;87.30;;;;;;5107615;28;19915;-55
2022/09/29 08:40:31;;;;;;;;;;;20.70;87.00;;;;;;5105078;28;20350;-55
2022/09/29 08:43:04;;;;;;;;;;;20.70;86.80;;;;;;5105446;28;19939;-55
2022/09/29 08:45:32;;;;;;;;;;;20.70;87.20;;;;;;5114848;28;19912;-54
2022/09/29 08:48:09;;;;;;;;;;;20.70;86.80;;;;;;5105506;28;19918;-53
2022/09/29 08:50:41;;;;;;;;;;;20.70;86.60;;;;;;5101953;28;19912;-53
2022/09/29 08:53:09;;;;;;;;;;;20.70;86.80;;;;;;5112033;28;19982;-53
2022/09/29 08:55:41;;;;;;;;;;;20.70;86.90;;;;;;5097991;28;19908;-54
2022/09/29 08:58:11;;;;;;;;;;;20.70;87.00;;;;;;5095219;28;19919;-52
2022/09/29 09:00:57;;;;;;;;;;;20.70;87.00;;;;;;5094518;28;19904;-50
2022/09/29 09:03:25;;;;;;;;;;;20.60;87.00;;;;;;5062500;28;20379;-52
2022/09/29 09:06:10;;;;;;;;;;;20.60;86.20;;;;;;5095763;28;19920;-51
2022/09/29 09:08:58;;;;;;;;;;;20.60;87.10;;;;;;5108498;28;19921;-52
2022/09/29 09:11:24;;;;;;;;;;;20.60;87.20;;;;;;5109895;28;19905;-52
2022/09/29 09:13:54;;;;;;;;;;;20.50;87.20;;;;;;5096240;28;19920;-53
2022/09/29 09:16:38;;;;;;;;;;;20.50;87.30;;;;;;5096190;28;19904;-52
2022/09/29 09:19:12;;;;;;;;;;;20.50;87.30;;;;;;5092953;28;19931;-49
2022/09/29 09:21:40;;;;;;;;;;;20.50;87.40;;;;;;5092560;28;19904;-49
2022/09/29 09:24:08;;;;;;;;;;;20.60;87.30;;;;;;5106582;28;20582;-50
2022/09/29 09:26:38;;;;;;;;;;;20.70;87.10;;;;;;5114657;28;19994;-49
2022/09/29 09:29:24;;;;;;;;;;;20.80;86.80;;;;;;5105038;28;19904;-53
2022/09/29 09:31:56;;;;;;;;;;;20.90;86.60;;;;;;5093980;28;19915;-50
2022/09/29 09:34:24;;;;;;;;;;;20.90;86.60;;;;;;5106799;28;19904;-53
2022/09/29 09:36:54;;;;;;;;;;;20.90;86.60;;;;;;5105454;28;19960;-51
2022/09/29 09:39:24;;;;;;;;;;;20.90;86.50;;;;;;5104140;28;19940;-51
2022/09/29 09:41:50;;;;;;;;;;;20.90;86.60;;;;;;5107753;28;19917;-49
2022/09/29 09:44:18;;;;;;;;;;;20.80;86.70;;;;;;5104988;28;19970;-52
2022/09/29 09:46:53;;;;;;;;;;;20.80;86.80;;;;;;5107946;28;19911;-52
2022/09/29 09:49:28;;;;;;;;;;;20.80;86.90;;;;;;5101539;28;19923;-52
2022/09/29 09:51:53;;;;;;;;;;;20.80;87.00;;;;;;5092655;28;19923;-50
2022/09/29 09:54:25;;;;;;;;;;;20.70;87.00;;;;;;5109398;28;19904;-50
2022/09/29 09:57:00;;;;;;;;;;;20.70;87.00;;;;;;5109008;28;20002;-51
2022/09/29 09:59:25;;;;;;;;;;;20.70;87.20;;;;;;5114030;28;20256;-50
2022/09/29 10:01:51;;;;;;;;;;;20.70;87.20;;;;;;5103043;28;19904;-48
2022/09/29 10:04:16;;;;;;;;;;;20.70;87.20;;;;;;5090427;28;19923;-49
2022/09/29 10:06:42;;;;;;;;;;;20.60;87.30;;;;;;5078634;28;20012;-49
2022/09/29 10:09:14;;;;;;;;;;;20.60;87.30;;;;;;5106631;28;19995;-50
2022/09/29 10:11:40;;;;;;;;;;;20.60;87.40;;;;;;5100680;28;19915;-50
2022/09/29 10:14:21;;;;;;;;;;;20.60;87.40;;;;;;5112677;28;19915;-52
2022/09/29 10:16:53;;;;;;;;;;;20.60;87.40;;;;;;5103682;28;19961;-51
2022/09/29 10:19:22;;;;;;;;;;;20.60;87.10;;;;;;5108105;28;19912;-46
2022/09/29 10:21:48;;;;;;;;;;;20.70;87.30;;;;;;5113595;28;19908;-49
2022/09/29 10:24:22;;;;;;;;;;;20.70;87.00;;;;;;5107654;28;20022;-50
2022/09/29 10:26:49;;;;;;;;;;;20.80;86.90;;;;;;5104533;28;20354;-47
2022/09/29 10:29:26;;;;;;;;;;;20.80;86.80;;;;;;5104950;28;19908;-47
2022/09/29 10:32:03;;;;;;;;;;;20.80;86.70;;;;;;5107327;28;19994;-45
2022/09/29 10:34:29;;;;;;;;;;;20.80;86.70;;;;;;5112060;28;20208;-50
2022/09/29 10:36:56;;;;;;;;;;;20.80;86.70;;;;;;5109971;28;19904;-47
2022/09/29 10:39:42;;;;;;;;;;;20.80;86.80;;;;;;5113806;28;19904;-47
2022/09/29 10:42:14;;;;;;;;;;;20.80;87.00;;;;;;5106760;28;19908;-50
2022/09/29 10:44:40;;;;;;;;;;;20.80;86.90;;;;;;5105547;28;19961;-48
2022/09/29 10:47:13;;;;;;;;;;;20.80;86.90;;;;;;5110879;28;19912;-49
2022/09/29 10:49:39;;;;;;;;;;;20.80;87.00;;;;;;5091050;28;20373;-47
2022/09/29 10:52:06;;;;;;;;;;;20.80;87.10;;;;;;5108889;28;19908;-52
2022/09/29 10:54:33;;;;;;;;;;;20.70;87.10;;;;;;5098303;28;19908;-46
2022/09/29 10:56:59;;;;;;;;;;;20.70;87.10;;;;;;5109194;28;19953;-52
2022/09/29 10:59:25;;;;;;;;;;;20.70;87.10;;;;;;5108577;28;19911;-47
2022/09/29 11:02:01;;;;;;;;;;;20.70;87.10;;;;;;5109981;28;20036;-48
2022/09/29 11:04:31;;;;;;;;;;;20.70;87.20;;;;;;5117136;28;19934;-46
2022/09/29 11:07:05;;;;;;;;;;;20.70;87.30;;;;;;5110409;28;19915;-49
2022/09/29 11:09:36;;;;;;;;;;;20.70;87.40;;;;;;5108871;28;20353;-50
2022/09/29 11:12:01;;;;;;;;;;;20.70;87.50;;;;;;5068015;28;19970;-51
2022/09/29 11:14:36;;;;;;;;;;;20.70;86.50;;;;;;5112247;28;20002;-53
2022/09/29 11:17:17;;;;;;;;;;;20.70;87.20;;;;;;5097491;28;20005;-50
2022/09/29 11:19:43;;;;;;;;;;;20.80;87.10;;;;;;5095762;28;19951;-52
2022/09/29 11:22:17;;;;;;;;;;;20.80;86.90;;;;;;5094937;28;19969;-49
2022/09/29 11:24:52;;;;;;;;;;;20.80;86.70;;;;;;5095951;28;19919;-53
2022/09/29 11:27:29;;;;;;;;;;;20.90;86.60;;;;;;5095797;28;19908;-50
2022/09/29 11:30:06;;;;;;;;;;;20.90;86.60;;;;;;5096213;28;20412;-48
2022/09/29 11:32:38;;;;;;;;;;;20.90;86.60;;;;;;5096736;28;19912;-50
2022/09/29 11:35:10;;;;;;;;;;;20.80;86.50;;;;;;5096439;28;19999;-50
2022/09/29 11:37:54;;;;;;;;;;;20.80;86.50;;;;;;5095873;28;19955;-51
2022/09/29 11:40:26;;;;;;;;;;;20.80;86.50;;;;;;5095772;28;20378;-49
2022/09/29 11:43:07;;;;;;;;;;;20.80;86.50;;;;;;5096080;28;20026;-49
2022/09/29 11:45:38;;;;;;;;;;;20.80;86.50;;;;;;5096105;28;19965;-50
2022/09/29 11:48:12;;;;;;;;;;;20.80;86.50;;;;;;5096033;28;19912;-50
2022/09/29 11:50:37;;;;;;;;;;;20.80;86.60;;;;;;5095671;28;20317;-48
2022/09/29 11:53:08;;;;;;;;;;;20.80;86.50;;;;;;5095653;28;19908;-48
2022/09/29 11:56:00;;;;;;;;;;;20.70;86.50;;;;;;5101847;28;20247;-51
2022/09/29 11:58:41;;;;;;;;;;;20.70;85.80;;;;;;5058877;28;19916;-50
2022/09/29 12:01:09;;;;;;;;;;;20.60;84.70;;;;;;5089593;28;20466;-45
2022/09/29 12:04:14;;;;;;;;;;;20.70;86.30;;;;;;5095135;28;19920;-50
2022/09/29 12:06:53;;;;;;;;;;;20.70;86.40;;;;;;5032417;28;19986;-47
2022/09/29 12:09:27;;;;;;;;;;;20.70;86.40;;;;;;5031862;28;19913;-49
2022/09/29 12:12:04;;;;;;;;;;;20.70;86.40;;;;;;5059144;28;19961;-49
2022/09/29 12:14:37;;;;;;;;;;;20.80;86.30;;;;;;5105020;28;19912;-51
2022/09/29 12:17:11;;;;;;;;;;;20.80;86.10;;;;;;5115703;28;19907;-47
2022/09/29 12:19:38;;;;;;;;;;;20.90;86.00;;;;;;5104754;28;19908;-47
2022/09/29 12:22:07;;;;;;;;;;;20.90;85.90;;;;;;5095496;28;19908;-51
2022/09/29 12:24:50;;;;;;;;;;;20.90;85.90;;;;;;5095143;28;19957;-54
2022/09/29 12:27:36;;;;;;;;;;;20.90;85.40;;;;;;5094720;28;19920;-52
2022/09/29 12:30:02;;;;;;;;;;;20.90;86.00;;;;;;5096294;28;19908;-50
2022/09/29 12:32:31;;;;;;;;;;;20.90;86.10;;;;;;5096368;28;19961;-51
2022/09/29 12:35:00;;;;;;;;;;;20.80;86.20;;;;;;5094584;28;19915;-50
2022/09/29 12:37:28;;;;;;;;;;;20.80;86.20;;;;;;5100430;28;19967;-51
2022/09/29 12:40:23;;;;;;;;;;;20.80;86.40;;;;;;5095033;28;19908;-54
2022/09/29 12:42:57;;;;;;;;;;;20.80;86.30;;;;;;5092219;28;19916;-52
2022/09/29 12:45:26;;;;;;;;;;;20.90;86.50;;;;;;5115254;28;19963;-52
2022/09/29 12:48:11;;;;;;;;;;;20.80;86.70;;;;;;5115194;28;19908;-51
2022/09/29 12:50:40;;;;;;;;;;;20.80;86.60;;;;;;5111133;28;19938;-52
2022/09/29 12:53:16;;;;;;;;;;;20.80;86.60;;;;;;5108530;28;20325;-56
2022/09/29 12:55:51;;;;;;;;;;;20.80;86.60;;;;;;5099382;28;19973;-55
2022/09/29 12:58:39;;;;;;;;;;;20.80;86.70;;;;;;5094140;28;19912;-55
2022/09/29 13:01:17;;;;;;;;;;;20.80;86.60;;;;;;5089549;28;19950;-52
2022/09/29 13:03:53;;;;;;;;;;;20.80;86.90;;;;;;5111633;28;19916;-50
2022/09/29 13:06:28;;;;;;;;;;;20.70;86.90;;;;;;5103262;28;19943;-51
2022/09/29 13:08:59;;;;;;;;;;;20.70;87.00;;;;;;5108334;28;20019;-51
2022/09/29 13:11:40;;;;;;;;;;;20.70;87.10;;;;;;5103738;28;20383;-48
2022/09/29 13:14:18;;;;;;;;;;;20.70;87.20;;;;;;5094507;28;19912;-50
2022/09/29 13:17:02;;;;;;;;;;;20.70;87.20;;;;;;5094333;28;20382;-53
2022/09/29 13:19:35;;;;;;;;;;;20.70;87.10;;;;;;5081712;28;19919;-51
2022/09/29 13:22:05;;;;;;;;;;;20.80;87.10;;;;;;5084912;28;19913;-50
2022/09/29 13:24:31;;;;;;;;;;;20.90;86.80;;;;;;5094119;28;20383;-49
2022/09/29 13:27:19;;;;;;;;;;;20.90;86.50;;;;;;5075724;28;19937;-51
2022/09/29 13:29:53;;;;;;;;;;;21.00;86.40;;;;;;5077028;28;19958;-46
2022/09/29 13:32:18;;;;;;;;;;;21.00;86.20;;;;;;5090928;28;20345;-42
2022/09/29 13:34:51;;;;;;;;;;;20.90;86.20;;;;;;5093718;28;20004;-48
2022/09/29 13:37:17;;;;;;;;;;;20.90;86.20;;;;;;5094006;28;20357;-44
2022/09/29 13:40:03;;;;;;;;;;;20.90;86.20;;;;;;5093603;28;19908;-46
2022/09/29 13:42:35;;;;;;;;;;;21.00;86.30;;;;;;5092981;28;20255;-48
2022/09/29 13:45:35;;;;;;;;;;;20.90;86.40;;;;;;5075748;28;19955;-44
2022/09/29 13:48:16;;;;;;;;;;;20.90;86.40;;;;;;5086174;28;19953;-44
2022/09/29 13:50:45;;;;;;;;;;;20.90;86.40;;;;;;5093949;28;19916;-45
2022/09/29 13:53:31;;;;;;;;;;;20.90;86.50;;;;;;5094123;28;19916;-45
2022/09/29 13:56:03;;;;;;;;;;;20.90;86.50;;;;;;5093470;28;19939;-46
2022/09/29 13:58:32;;;;;;;;;;;20.90;86.50;;;;;;5093629;28;20002;-42
2022/09/29 14:01:03;;;;;;;;;;;20.90;86.50;;;;;;5093803;28;19908;-43
2022/09/29 14:03:31;;;;;;;;;;;20.90;86.60;;;;;;5094292;28;19912;-48
2022/09/29 14:06:09;;;;;;;;;;;20.90;86.80;;;;;;5104658;28;19923;-46
2022/09/29 14:08:41;;;;;;;;;;;20.90;86.80;;;;;;5099053;28;19912;-44
2022/09/29 14:11:13;;;;;;;;;;;20.80;86.80;;;;;;5098711;28;19922;-44
2022/09/29 14:13:41;;;;;;;;;;;20.80;86.90;;;;;;5093915;28;19948;-48
2022/09/29 14:16:18;;;;;;;;;;;20.80;87.00;;;;;;5093864;28;19912;-48
2022/09/29 14:18:47;;;;;;;;;;;20.80;87.20;;;;;;5091255;28;20385;-45
2022/09/29 14:21:32;;;;;;;;;;;20.70;87.10;;;;;;5107420;28;19912;-46
2022/09/29 14:23:58;;;;;;;;;;;20.70;87.10;;;;;;5097110;28;19916;-45
2022/09/29 14:26:43;;;;;;;;;;;20.80;87.10;;;;;;5101165;28;20308;-44
2022/09/29 14:29:21;;;;;;;;;;;20.80;87.10;;;;;;5110799;28;19954;-44
2022/09/29 14:31:52;;;;;;;;;;;20.80;86.90;;;;;;5102011;28;20339;-46